Hooper Bay Airport Hooper Bay US
ICAO: PAHP
IATA:
Category: Medium
Scheduled Services:

Elevation: 13 ft
TransAlt. 18000 ft.

Airport Communications:
AWOS 3:135.1
CTAF:123
KENAI RDO:122.4
TWEB:115.2

PAHP Zoom In..

Runways:

(A) RW 13 length 3300 ft width 75 ft
---- / hdg 136

(B) RW 31 length 3300 ft width 75 ft
---- / hdg 316

Location; PAHP
Day. 16 / Time. 17.56 Zulu
* Altimeter: 29.96
* Temperature: 11° c. 51.8°f.
* Wind from: 000° Speed 00 kn.
Dewpoint: 09° c.
Visibility: 10 Statute Miles.
Clouds: Scattered 900 ft.

PAHP 161756Z AUTO 00000KT 10SM SCT009 11/09 A2996 RMK AO2 SLP184 T01110089 10111 20089 51009


Wind - Calm.

 
 
jpsmedia.com for Web Design worldairports.se 2018   terms of use